createdAt,value
2019-04-20T00:00:54.549Z,8.70
2019-04-20T00:03:23.694Z,13.20
2019-04-20T00:05:53.175Z,9.77
2019-04-20T00:08:26.517Z,10.23
2019-04-20T00:11:02.381Z,9.13
2019-04-20T00:13:37.829Z,11.80
2019-04-20T00:15:55.815Z,9.40
2019-04-20T00:18:32.925Z,10.73
2019-04-20T00:21:03.865Z,12.97
2019-04-20T00:23:38.349Z,8.97
2019-04-20T00:26:34.089Z,9.07
2019-04-20T00:29:10.230Z,9.53
2019-04-20T00:31:42.157Z,7.90
2019-04-20T00:34:06.142Z,9.43
2019-04-20T00:36:26.273Z,11.63
2019-04-20T00:39:00.965Z,8.13
2019-04-20T00:41:27.744Z,10.70
2019-04-20T00:44:04.669Z,9.90
2019-04-20T00:46:35.694Z,7.40
2019-04-20T00:49:15.204Z,7.70
2019-04-20T00:51:44.897Z,10.67
2019-04-20T00:54:02.602Z,7.67
2019-04-20T00:56:32.961Z,9.93
2019-04-20T00:59:13.018Z,9.07
2019-04-20T01:01:52.435Z,9.03
2019-04-20T01:04:19.836Z,8.40
2019-04-20T01:07:11.271Z,10.03
2019-04-20T01:09:45.430Z,9.20
2019-04-20T01:12:20.536Z,13.80
2019-04-20T01:14:52.110Z,9.03
2019-04-20T01:17:17.026Z,9.63
2019-04-20T01:19:48.821Z,8.83
2019-04-20T01:22:21.871Z,8.97
2019-04-20T01:24:48.724Z,11.63
2019-04-20T01:27:32.168Z,7.33
2019-04-20T01:30:02.281Z,8.70
2019-04-20T01:32:31.081Z,8.80
2019-04-20T01:35:03.964Z,9.50
2019-04-20T01:37:32.820Z,9.97
2019-04-20T01:39:57.262Z,11.73
2019-04-20T01:42:25.535Z,10.77
2019-04-20T01:44:56.783Z,11.43
2019-04-20T01:47:32.309Z,9.03
2019-04-20T01:50:04.727Z,9.93
2019-04-20T01:52:39.752Z,9.93
2019-04-20T01:55:24.513Z,9.17
2019-04-20T01:57:58.327Z,10.77
2019-04-20T02:00:35.658Z,11.43
2019-04-20T02:03:08.210Z,10.23
2019-04-20T02:05:38.624Z,11.53
2019-04-20T02:08:12.838Z,8.80
2019-04-20T02:10:45.960Z,9.63
2019-04-20T02:13:11.039Z,7.60
2019-04-20T02:15:48.002Z,8.30
2019-04-20T02:18:23.144Z,9.53
2019-04-20T02:21:01.311Z,10.60
2019-04-20T02:23:24.945Z,12.87
2019-04-20T02:25:44.188Z,8.97
2019-04-20T02:28:27.241Z,8.60
2019-04-20T02:36:42.911Z,9.13
2019-04-20T02:44:18.061Z,9.50
2019-04-20T02:46:42.997Z,10.13
2019-04-20T02:49:29.637Z,12.60
2019-04-20T02:51:42.342Z,10.67
2019-04-20T02:59:42.281Z,11.23
2019-04-20T03:01:36.808Z,10.07
2019-04-20T03:03:52.619Z,11.77
2019-04-20T03:06:30.770Z,11.93
2019-04-20T03:09:17.723Z,12.90
2019-04-20T03:11:52.944Z,11.80
2019-04-20T03:14:09.509Z,12.27
2019-04-20T03:16:39.681Z,10.20
2019-04-20T03:19:12.982Z,10.60
2019-04-20T03:21:45.461Z,11.20
2019-04-20T03:24:23.796Z,13.57
2019-04-20T03:26:47.730Z,9.87
2019-04-20T03:29:13.002Z,10.57
2019-04-20T03:37:04.129Z,11.60
2019-04-20T03:39:23.239Z,12.63
2019-04-20T03:41:44.447Z,13.30
2019-04-20T03:44:15.657Z,13.23
2019-04-20T03:46:47.940Z,12.47
2019-04-20T03:49:39.699Z,10.30
2019-04-20T03:52:02.600Z,13.00
2019-04-20T03:54:31.866Z,12.23
2019-04-20T03:57:12.431Z,12.03
2019-04-20T03:59:43.677Z,14.30
2019-04-20T04:02:43.068Z,12.13
2019-04-20T04:04:59.420Z,12.20
2019-04-20T04:07:19.522Z,13.23
2019-04-20T04:09:58.646Z,13.07
2019-04-20T04:12:51.772Z,11.03
2019-04-20T04:15:21.240Z,12.93
2019-04-20T04:17:51.476Z,13.93
2019-04-20T04:20:22.429Z,12.47
2019-04-20T04:23:09.989Z,13.27
2019-04-20T04:25:33.524Z,15.57
2019-04-20T04:28:10.594Z,13.80
2019-04-20T04:30:36.521Z,13.73
2019-04-20T04:35:40.238Z,13.13
2019-04-20T04:38:24.102Z,11.07
2019-04-20T04:40:59.019Z,16.30
2019-04-20T04:43:22.462Z,16.97
2019-04-20T04:45:31.940Z,15.30
2019-04-20T04:48:02.001Z,13.90
2019-04-20T04:50:32.954Z,15.90
2019-04-20T04:53:09.386Z,18.70
2019-04-20T04:55:43.951Z,15.87
2019-04-20T04:58:04.407Z,22.23
2019-04-20T05:00:35.655Z,21.20
2019-04-20T05:03:23.328Z,19.53
2019-04-20T05:06:01.808Z,20.17
2019-04-20T05:08:25.310Z,23.10
2019-04-20T05:10:47.837Z,22.30
2019-04-20T05:13:17.757Z,16.83
2019-04-20T05:16:00.432Z,18.17
2019-04-20T05:18:41.498Z,20.17
2019-04-20T05:21:10.155Z,17.60
2019-04-20T05:23:37.881Z,17.33
2019-04-20T05:26:20.046Z,17.00
2019-04-20T05:28:45.788Z,17.20
2019-04-20T05:31:07.965Z,18.83
2019-04-20T05:34:03.617Z,19.10
2019-04-20T05:36:29.647Z,16.57
2019-04-20T05:39:09.228Z,18.07
2019-04-20T05:41:26.925Z,24.37
2019-04-20T05:44:03.685Z,16.43
2019-04-20T05:46:35.378Z,17.57
2019-04-20T05:49:13.437Z,14.67
2019-04-20T05:51:39.511Z,14.53
2019-04-20T05:54:15.576Z,13.77
2019-04-20T05:56:47.739Z,15.53
2019-04-20T05:59:11.161Z,12.60
2019-04-20T06:01:48.852Z,14.73
2019-04-20T06:04:17.280Z,13.80
2019-04-20T06:06:49.690Z,14.57
2019-04-20T06:09:23.106Z,14.57
2019-04-20T06:12:04.881Z,13.57
2019-04-20T06:14:19.339Z,12.37
2019-04-20T06:17:11.297Z,15.30
2019-04-20T06:19:35.897Z,14.57
2019-04-20T06:22:21.048Z,14.37
2019-04-20T06:25:10.128Z,15.90
2019-04-20T06:27:16.114Z,13.97
2019-04-20T06:29:45.759Z,14.67
2019-04-20T06:32:21.481Z,13.37
2019-04-20T06:34:42.532Z,15.30
2019-04-20T06:37:17.224Z,12.47
2019-04-20T06:42:18.077Z,12.43
2019-04-20T06:44:48.407Z,13.40
2019-04-20T06:47:24.867Z,11.93
2019-04-20T06:49:51.586Z,11.83
2019-04-20T06:52:27.502Z,11.23
2019-04-20T06:55:07.000Z,10.60
2019-04-20T06:57:52.781Z,10.70
2019-04-20T07:00:15.344Z,12.00
2019-04-20T07:05:18.941Z,11.60
2019-04-20T07:12:48.102Z,11.47
2019-04-20T07:15:19.951Z,10.83
2019-04-20T07:17:57.275Z,12.20
2019-04-20T07:20:35.138Z,12.57
2019-04-20T07:23:12.934Z,11.50
2019-04-20T07:25:39.005Z,11.93
2019-04-20T07:28:05.447Z,11.33
2019-04-20T07:30:35.437Z,11.00
2019-04-20T07:33:04.233Z,10.67
2019-04-20T07:35:36.024Z,10.00
2019-04-20T07:38:30.873Z,12.43
2019-04-20T07:40:38.268Z,12.57
2019-04-20T07:43:13.344Z,12.47
2019-04-20T07:45:40.101Z,11.83
2019-04-20T07:48:25.780Z,12.00
2019-04-20T07:50:37.607Z,12.63
2019-04-20T07:53:15.913Z,11.20
2019-04-20T07:55:54.052Z,12.57
2019-04-20T07:58:15.635Z,11.97
2019-04-20T08:01:05.707Z,11.90
2019-04-20T08:03:42.793Z,11.43
2019-04-20T08:06:00.764Z,11.67
2019-04-20T08:08:42.210Z,14.03
2019-04-20T08:11:07.468Z,14.47
2019-04-20T08:13:47.929Z,13.60
2019-04-20T08:16:24.415Z,11.13
2019-04-20T08:21:25.451Z,13.73
2019-04-20T08:23:58.145Z,16.63
2019-04-20T08:26:14.435Z,11.13
2019-04-20T08:28:51.964Z,10.50
2019-04-20T08:31:49.065Z,13.93
2019-04-20T08:34:31.422Z,10.10
2019-04-20T08:37:03.276Z,8.70
2019-04-20T08:42:11.642Z,8.53
2019-04-20T08:47:15.450Z,8.07
2019-04-20T08:49:34.831Z,11.20
2019-04-20T08:52:22.974Z,10.00
2019-04-20T08:54:31.280Z,10.00
2019-04-20T08:56:53.679Z,9.80
2019-04-20T08:59:18.878Z,9.13
2019-04-20T09:01:48.931Z,7.53
2019-04-20T09:04:24.237Z,9.40
2019-04-20T09:07:02.394Z,7.63
2019-04-20T09:09:56.362Z,8.50
2019-04-20T09:12:11.880Z,8.23
2019-04-20T09:14:23.769Z,9.10
2019-04-20T09:17:00.272Z,9.50
2019-04-20T09:19:37.951Z,8.27
2019-04-20T09:22:28.005Z,8.07
2019-04-20T09:25:13.109Z,8.13
2019-04-20T09:27:25.365Z,7.50
2019-04-20T09:30:04.306Z,9.43
2019-04-20T09:32:48.577Z,9.30
2019-04-20T09:35:34.255Z,8.80
2019-04-20T09:38:05.155Z,8.37
2019-04-20T09:40:40.236Z,8.67
2019-04-20T09:43:02.610Z,8.87
2019-04-20T09:45:45.068Z,8.83
2019-04-20T09:48:18.188Z,9.20
2019-04-20T09:51:07.891Z,10.17
2019-04-20T09:53:25.782Z,9.93
2019-04-20T09:56:04.673Z,10.90
2019-04-20T09:58:28.046Z,10.53
2019-04-20T10:01:01.772Z,12.13
2019-04-20T10:03:18.533Z,11.90
2019-04-20T10:05:48.038Z,12.50
2019-04-20T10:08:17.617Z,13.00
2019-04-20T10:10:48.935Z,12.27
2019-04-20T10:13:19.418Z,13.10
2019-04-20T10:15:49.989Z,11.80
2019-04-20T10:18:19.776Z,12.07
2019-04-20T10:20:49.619Z,11.70
2019-04-20T10:23:20.468Z,12.40
2019-04-20T10:25:50.935Z,14.10
2019-04-20T10:28:21.561Z,13.07
2019-04-20T10:30:50.906Z,11.10
2019-04-20T10:33:20.058Z,12.07
2019-04-20T10:35:49.651Z,11.30
2019-04-20T10:38:33.953Z,11.13
2019-04-20T10:41:08.292Z,10.00
2019-04-20T10:43:33.238Z,9.53
2019-04-20T10:46:02.736Z,9.13
2019-04-20T10:48:41.367Z,9.93
2019-04-20T10:51:03.636Z,9.77
2019-04-20T10:53:32.953Z,9.37
2019-04-20T10:56:03.438Z,9.37
2019-04-20T10:58:33.765Z,9.27
2019-04-20T11:01:03.946Z,6.87
2019-04-20T11:03:34.575Z,8.20
2019-04-20T11:06:04.795Z,7.80
2019-04-20T11:08:34.868Z,8.57
2019-04-20T11:11:12.888Z,7.50
2019-04-20T11:13:35.332Z,8.20
2019-04-20T11:16:04.641Z,8.53
2019-04-20T11:18:33.878Z,10.10
2019-04-20T11:21:03.611Z,8.47
2019-04-20T11:23:34.114Z,9.47
2019-04-20T11:26:04.335Z,9.23
2019-04-20T11:28:34.434Z,8.97
2019-04-20T11:31:04.100Z,10.77
2019-04-20T11:33:34.207Z,9.87
2019-04-20T11:36:03.678Z,7.73
2019-04-20T11:38:33.199Z,8.30
2019-04-20T11:41:11.290Z,9.97
2019-04-20T11:43:33.662Z,8.03
2019-04-20T11:46:03.248Z,7.20
2019-04-20T11:48:33.848Z,8.50
2019-04-20T11:51:03.510Z,7.83
2019-04-20T11:53:34.190Z,10.03
2019-04-20T11:56:06.651Z,7.13
2019-04-20T11:58:36.046Z,7.70
2019-04-20T12:01:27.193Z,8.43
2019-04-20T12:04:01.951Z,7.70
2019-04-20T12:06:26.587Z,8.07
2019-04-20T12:08:56.993Z,7.83
2019-04-20T12:11:33.972Z,7.43
2019-04-20T12:13:58.558Z,9.47
2019-04-20T12:16:28.258Z,8.17
2019-04-20T12:18:57.517Z,7.57
2019-04-20T12:21:26.711Z,7.63
2019-04-20T12:23:56.291Z,8.43
2019-04-20T12:26:26.904Z,7.63
2019-04-20T12:28:56.362Z,7.17
2019-04-20T12:31:27.591Z,6.50
2019-04-20T12:33:56.582Z,6.63
2019-04-20T12:36:26.081Z,8.03
2019-04-20T12:38:55.432Z,8.47
2019-04-20T12:41:36.646Z,7.37
2019-04-20T12:43:56.112Z,7.30
2019-04-20T12:46:26.751Z,6.43
2019-04-20T12:48:57.680Z,8.97
2019-04-20T12:51:33.767Z,6.80
2019-04-20T12:53:58.349Z,8.23
2019-04-20T12:56:28.546Z,7.13
2019-04-20T12:58:57.871Z,6.83
2019-04-20T13:01:28.023Z,6.40
2019-04-20T13:03:57.808Z,6.40
2019-04-20T13:06:57.798Z,7.03
2019-04-20T13:09:30.599Z,6.93
2019-04-20T13:14:06.371Z,6.43
2019-04-20T13:16:38.701Z,5.90
2019-04-20T13:19:08.972Z,9.20
2019-04-20T13:21:39.038Z,7.23
2019-04-20T13:24:09.339Z,6.93
2019-04-20T13:26:38.864Z,5.77
2019-04-20T13:29:08.740Z,7.33
2019-04-20T13:31:38.236Z,5.63
2019-04-20T13:34:07.669Z,8.23
2019-04-20T13:36:38.056Z,6.20
2019-04-20T13:39:08.274Z,6.90
2019-04-20T13:41:38.130Z,5.63
2019-04-20T13:44:08.344Z,5.60
2019-04-20T13:46:38.876Z,5.83
2019-04-20T13:49:09.276Z,5.77
2019-04-20T13:51:39.155Z,6.50
2019-04-20T13:54:14.948Z,5.90
2019-04-20T13:56:39.865Z,6.23
2019-04-20T13:59:30.011Z,6.70
2019-04-20T14:02:18.684Z,7.43
2019-04-20T14:04:56.667Z,7.13
2019-04-20T14:07:27.061Z,8.97
2019-04-20T14:09:57.457Z,5.93
2019-04-20T14:12:32.459Z,6.50
2019-04-20T14:14:59.360Z,7.00
2019-04-20T14:17:33.011Z,6.63
2019-04-20T14:20:07.365Z,6.57
2019-04-20T14:22:33.561Z,5.43
2019-04-20T14:25:03.043Z,5.30
2019-04-20T14:27:32.969Z,5.13
2019-04-20T14:30:03.494Z,7.47
2019-04-20T14:32:33.038Z,5.10
2019-04-20T14:35:03.105Z,7.23
2019-04-20T14:37:33.004Z,6.23
2019-04-20T14:40:04.085Z,6.23
2019-04-20T14:42:40.549Z,5.50
2019-04-20T14:45:06.810Z,5.20
2019-04-20T14:47:36.230Z,5.83
2019-04-20T14:50:09.778Z,6.20
2019-04-20T14:52:39.724Z,5.63
2019-04-20T14:55:13.434Z,5.67
2019-04-20T14:57:41.508Z,6.00
2019-04-20T15:00:29.935Z,6.40
2019-04-20T15:03:01.850Z,5.63
2019-04-20T15:05:31.312Z,5.43
2019-04-20T15:08:00.791Z,6.20
2019-04-20T15:10:31.069Z,6.07
2019-04-20T15:13:04.272Z,6.40
2019-04-20T15:15:32.552Z,7.53
2019-04-20T15:18:06.795Z,5.77
2019-04-20T15:20:41.657Z,6.87
2019-04-20T15:23:12.799Z,5.93
2019-04-20T15:25:42.317Z,6.87
2019-04-20T15:28:12.354Z,6.20
2019-04-20T15:30:42.505Z,7.47
2019-04-20T15:33:12.711Z,7.13
2019-04-20T15:35:42.231Z,6.73
2019-04-20T15:38:11.677Z,5.57
2019-04-20T15:40:41.461Z,6.20
2019-04-20T15:43:15.855Z,5.87
2019-04-20T15:45:43.426Z,6.80
2019-04-20T15:48:14.288Z,6.23
2019-04-20T15:50:43.823Z,7.63
2019-04-20T15:53:13.485Z,6.60
2019-04-20T15:55:43.852Z,5.70
2019-04-20T15:58:14.358Z,9.50
2019-04-20T16:00:44.681Z,6.87
2019-04-20T16:03:17.224Z,7.07
2019-04-20T16:05:51.556Z,7.10
2019-04-20T16:08:23.760Z,6.90
2019-04-20T16:10:53.303Z,5.97
2019-04-20T16:13:31.450Z,7.63
2019-04-20T16:15:53.902Z,6.73
2019-04-20T16:18:23.346Z,6.40
2019-04-20T16:21:00.386Z,6.77
2019-04-20T16:23:24.944Z,6.40
2019-04-20T16:26:01.911Z,8.37
2019-04-20T16:28:32.051Z,6.47
2019-04-20T16:31:01.677Z,7.13
2019-04-20T16:33:32.553Z,6.77
2019-04-20T16:36:02.646Z,6.87
2019-04-20T16:38:33.086Z,8.67
2019-04-20T16:41:02.675Z,8.03
2019-04-20T16:43:37.399Z,7.23
2019-04-20T16:46:03.501Z,6.37
2019-04-20T16:48:33.818Z,6.53
2019-04-20T16:51:04.791Z,6.97
2019-04-20T16:53:34.978Z,6.20
2019-04-20T16:56:04.623Z,6.07
2019-04-20T16:58:33.979Z,6.00
2019-04-20T17:01:03.738Z,7.80
2019-04-20T17:03:48.905Z,6.70
2019-04-20T17:06:06.385Z,8.23
2019-04-20T17:08:36.818Z,7.50
2019-04-20T17:11:07.752Z,8.23
2019-04-20T17:13:44.060Z,6.77
2019-04-20T17:16:10.031Z,8.00
2019-04-20T17:18:39.666Z,7.40
2019-04-20T17:21:16.554Z,6.90
2019-04-20T17:23:43.328Z,6.90
2019-04-20T17:26:12.923Z,6.97
2019-04-20T17:29:01.761Z,10.33
2019-04-20T17:31:43.047Z,8.33
2019-04-20T17:34:29.757Z,10.70
2019-04-20T17:36:44.472Z,11.53
2019-04-20T17:39:25.911Z,7.97
2019-04-20T17:42:03.044Z,8.67
2019-04-20T17:44:34.280Z,10.20
2019-04-20T17:47:00.494Z,10.27
2019-04-20T17:49:31.550Z,11.13
2019-04-20T17:52:11.937Z,10.33
2019-04-20T17:54:22.864Z,9.60
2019-04-20T17:56:52.353Z,11.53
2019-04-20T17:59:22.233Z,13.87
2019-04-20T18:02:07.877Z,17.93
2019-04-20T18:04:53.792Z,20.63
2019-04-20T18:07:18.350Z,24.73
2019-04-20T18:09:49.202Z,22.70
2019-04-20T18:12:07.541Z,26.07
2019-04-20T18:14:48.936Z,25.53
2019-04-20T18:17:19.193Z,27.30
2019-04-20T18:19:38.935Z,21.33
2019-04-20T18:22:10.000Z,23.33
2019-04-20T18:25:02.629Z,15.73
2019-04-20T18:27:31.703Z,18.80
2019-04-20T18:30:04.070Z,16.30
2019-04-20T18:32:23.307Z,19.57
2019-04-20T18:34:58.505Z,28.80
2019-04-20T18:37:26.845Z,32.63
2019-04-20T18:40:05.106Z,29.93
2019-04-20T18:42:34.352Z,26.23
2019-04-20T18:45:15.990Z,29.17
2019-04-20T18:47:49.596Z,35.10
2019-04-20T18:50:11.779Z,41.30
2019-04-20T18:52:33.726Z,43.03
2019-04-20T18:55:08.795Z,61.77
2019-04-20T18:57:37.915Z,64.20
2019-04-20T19:00:17.994Z,60.20
2019-04-20T19:02:45.425Z,51.53
2019-04-20T19:05:11.512Z,57.17
2019-04-20T19:07:51.614Z,74.73
2019-04-20T19:10:21.023Z,77.10
2019-04-20T19:13:06.657Z,77.43
2019-04-20T19:15:51.072Z,71.00
2019-04-20T19:18:38.182Z,65.90
2019-04-20T19:21:03.661Z,62.83
2019-04-20T19:23:35.192Z,59.73
2019-04-20T19:26:09.629Z,55.20
2019-04-20T19:28:42.802Z,54.10
2019-04-20T19:31:19.416Z,54.57
2019-04-20T19:34:04.642Z,58.27
2019-04-20T19:36:19.936Z,53.17
2019-04-20T19:38:54.719Z,48.57
2019-04-20T19:41:25.286Z,49.83
2019-04-20T19:43:55.027Z,51.37
2019-04-20T19:46:44.083Z,58.50
2019-04-20T19:48:56.068Z,52.10
2019-04-20T19:51:43.516Z,46.93
2019-04-20T19:54:12.159Z,42.43
2019-04-20T19:56:37.282Z,43.37
2019-04-20T19:59:05.147Z,44.60
2019-04-20T20:01:22.047Z,40.80
2019-04-20T20:03:57.513Z,44.53
2019-04-20T20:06:29.356Z,53.33
2019-04-20T20:09:00.570Z,60.57
2019-04-20T20:11:31.937Z,59.67
2019-04-20T20:13:59.166Z,54.90
2019-04-20T20:16:50.650Z,51.27
2019-04-20T20:19:08.503Z,48.20
2019-04-20T20:21:46.784Z,45.60
2019-04-20T20:24:04.048Z,43.13
2019-04-20T20:26:38.725Z,50.10
2019-04-20T20:29:12.496Z,36.83
2019-04-20T20:31:53.021Z,40.43
2019-04-20T20:34:17.162Z,60.97
2019-04-20T20:36:47.492Z,63.90
2019-04-20T20:39:20.016Z,72.83
2019-04-20T20:41:56.413Z,61.77
2019-04-20T20:44:27.608Z,74.40
2019-04-20T20:47:10.688Z,63.13
2019-04-20T20:49:41.925Z,64.90
2019-04-20T20:52:08.239Z,55.57
2019-04-20T20:54:33.690Z,57.80
2019-04-20T20:57:01.411Z,67.60
2019-04-20T20:59:35.856Z,54.07
2019-04-20T21:02:05.812Z,61.90
2019-04-20T21:04:25.766Z,58.47
2019-04-20T21:06:55.392Z,56.10
2019-04-20T21:09:25.645Z,51.87
2019-04-20T21:12:01.799Z,50.20
2019-04-20T21:14:31.135Z,48.20
2019-04-20T21:17:05.192Z,49.20
2019-04-20T21:19:50.296Z,43.93
2019-04-20T21:22:16.516Z,46.50
2019-04-20T21:24:47.071Z,42.57
2019-04-20T21:27:22.177Z,36.30
2019-04-20T21:29:59.974Z,36.83
2019-04-20T21:32:41.692Z,35.07
2019-04-20T21:35:12.777Z,36.73
2019-04-20T21:37:52.480Z,35.33
2019-04-20T21:40:27.953Z,36.00
2019-04-20T21:42:55.560Z,29.93
2019-04-20T21:45:25.547Z,27.07
2019-04-20T21:47:52.587Z,31.17
2019-04-20T21:50:37.043Z,28.87
2019-04-20T21:52:58.730Z,29.03
2019-04-20T21:55:25.939Z,35.33
2019-04-20T21:58:00.013Z,32.67
2019-04-20T22:00:39.058Z,32.93
2019-04-20T22:03:06.298Z,32.50
2019-04-20T22:05:34.624Z,28.60
2019-04-20T22:08:08.960Z,31.00
2019-04-20T22:10:36.663Z,33.57
2019-04-20T22:13:06.278Z,32.10
2019-04-20T22:15:45.695Z,33.00
2019-04-20T22:18:12.356Z,34.10
2019-04-20T22:20:53.264Z,31.63
2019-04-20T22:23:30.603Z,30.60
2019-04-20T22:25:58.056Z,31.60
2019-04-20T22:28:14.291Z,32.27
2019-04-20T22:30:48.301Z,26.60
2019-04-20T22:33:23.601Z,30.63
2019-04-20T22:35:57.693Z,28.73
2019-04-20T22:38:37.641Z,23.90
2019-04-20T22:41:11.028Z,30.03
2019-04-20T22:43:40.188Z,25.23
2019-04-20T22:46:07.896Z,25.00
2019-04-20T22:48:45.015Z,29.57
2019-04-20T22:51:27.959Z,35.13
2019-04-20T22:53:49.809Z,31.20
2019-04-20T22:56:29.722Z,29.87
2019-04-20T22:58:55.577Z,33.17
2019-04-20T23:01:19.403Z,25.83
2019-04-20T23:03:45.074Z,29.23
2019-04-20T23:06:14.651Z,28.20
2019-04-20T23:08:47.302Z,27.53
2019-04-20T23:11:21.661Z,26.17
2019-04-20T23:13:48.144Z,26.27
2019-04-20T23:16:17.632Z,25.90
2019-04-20T23:18:47.029Z,26.17
2019-04-20T23:21:17.607Z,23.77
2019-04-20T23:23:47.197Z,23.97
2019-04-20T23:26:24.301Z,23.43
2019-04-20T23:28:51.824Z,24.87
2019-04-20T23:31:22.089Z,25.00
2019-04-20T23:33:49.955Z,23.23
2019-04-20T23:36:29.218Z,21.80
2019-04-20T23:38:54.646Z,22.80
2019-04-20T23:41:21.909Z,21.07
2019-04-20T23:44:01.755Z,20.23
2019-04-20T23:46:34.986Z,19.57
2019-04-20T23:49:29.915Z,19.87
2019-04-20T23:52:21.714Z,22.47
2019-04-20T23:54:30.324Z,18.73
2019-04-20T23:56:57.772Z,22.00
2019-04-20T23:59:35.800Z,19.03
